createdAt,value
2024-02-16T00:00:45.904Z,100.00
2024-02-16T00:03:36.876Z,100.00
2024-02-16T00:06:08.411Z,100.00
2024-02-16T00:08:39.547Z,100.00
2024-02-16T00:11:08.884Z,100.00
2024-02-16T00:13:39.849Z,100.00
2024-02-16T00:16:10.859Z,100.00
2024-02-16T00:18:40.316Z,100.00
2024-02-16T00:21:11.511Z,100.00
2024-02-16T00:23:40.863Z,100.00
2024-02-16T00:26:11.849Z,100.00
2024-02-16T00:28:43.387Z,100.00
2024-02-16T00:31:12.624Z,100.00
2024-02-16T00:33:43.741Z,100.00
2024-02-16T00:36:14.933Z,100.00
2024-02-16T00:38:44.315Z,100.00
2024-02-16T00:41:23.011Z,100.00
2024-02-16T00:43:53.954Z,100.00
2024-02-16T00:46:23.299Z,100.00
2024-02-16T00:48:54.750Z,100.00
2024-02-16T00:51:25.893Z,100.00
2024-02-16T00:53:57.039Z,100.00
2024-02-16T00:56:26.279Z,100.00
2024-02-16T00:58:57.291Z,100.00
2024-02-16T01:01:26.657Z,100.00
2024-02-16T01:03:57.669Z,100.00
2024-02-16T01:06:28.764Z,100.00
2024-02-16T01:08:59.751Z,100.00
2024-02-16T01:11:29.087Z,100.00
2024-02-16T01:14:00.049Z,100.00
2024-02-16T01:16:31.104Z,100.00
2024-02-16T01:19:00.458Z,100.00
2024-02-16T01:21:31.524Z,100.00
2024-02-16T01:24:00.953Z,100.00
2024-02-16T01:26:32.154Z,100.00
2024-02-16T01:29:03.257Z,100.00
2024-02-16T01:31:32.564Z,100.00
2024-02-16T01:34:03.774Z,100.00
2024-02-16T01:36:34.902Z,100.00
2024-02-16T01:39:05.985Z,100.00
2024-02-16T01:41:35.373Z,100.00
2024-02-16T01:44:06.816Z,100.00
2024-02-16T01:46:38.159Z,100.00
2024-02-16T01:49:09.595Z,100.00
2024-02-16T01:51:41.000Z,100.00
2024-02-16T01:54:12.121Z,100.00
2024-02-16T01:56:43.390Z,100.00
2024-02-16T01:59:14.638Z,100.00
2024-02-16T02:01:45.861Z,100.00
2024-02-16T02:04:17.031Z,100.00
2024-02-16T02:06:48.260Z,100.00
2024-02-16T02:09:19.277Z,100.00
2024-02-16T02:11:50.344Z,100.00
2024-02-16T02:14:24.397Z,100.00
2024-02-16T02:16:59.054Z,100.00
2024-02-16T02:19:31.801Z,100.00
2024-02-16T02:22:02.774Z,100.00
2024-02-16T02:24:33.753Z,100.00
2024-02-16T02:27:03.165Z,100.00
2024-02-16T02:29:34.369Z,100.00
2024-02-16T02:32:07.588Z,100.00
2024-02-16T02:34:38.803Z,100.00
2024-02-16T02:37:09.814Z,100.00
2024-02-16T02:39:39.154Z,100.00
2024-02-16T02:42:10.378Z,100.00
2024-02-16T02:44:41.803Z,100.00
2024-02-16T02:47:12.802Z,100.00
2024-02-16T02:49:42.163Z,100.00
2024-02-16T02:52:13.386Z,100.00
2024-02-16T02:54:44.378Z,100.00
2024-02-16T02:57:13.791Z,100.00
2024-02-16T02:59:44.782Z,100.00
2024-02-16T03:02:15.579Z,100.00
2024-02-16T03:04:46.623Z,100.00
2024-02-16T03:07:15.807Z,100.00
2024-02-16T03:09:46.658Z,100.00
2024-02-16T03:12:17.423Z,100.00
2024-02-16T03:14:48.785Z,100.00
2024-02-16T03:17:19.794Z,100.00
2024-02-16T03:19:49.165Z,100.00
2024-02-16T03:22:20.164Z,100.00
2024-02-16T03:24:49.306Z,100.00
2024-02-16T03:27:20.177Z,100.00
2024-02-16T03:29:49.478Z,100.00
2024-02-16T03:32:20.400Z,100.00
2024-02-16T03:34:51.578Z,100.00
2024-02-16T03:37:22.421Z,100.00
2024-02-16T03:39:53.231Z,100.00
2024-02-16T03:42:24.246Z,100.00
2024-02-16T03:44:53.591Z,100.00
2024-02-16T03:47:24.398Z,100.00
2024-02-16T03:49:55.416Z,100.00
2024-02-16T03:52:26.443Z,100.00
2024-02-16T03:54:57.220Z,100.00
2024-02-16T03:57:28.405Z,100.00
2024-02-16T03:59:59.274Z,100.00
2024-02-16T04:02:30.211Z,100.00
2024-02-16T04:04:59.426Z,100.00
2024-02-16T04:07:30.275Z,100.00
2024-02-16T04:10:01.338Z,100.00
2024-02-16T04:12:30.608Z,100.00
2024-02-16T04:15:01.571Z,100.00
2024-02-16T04:17:32.335Z,100.00
2024-02-16T04:20:03.582Z,100.00
2024-02-16T04:22:34.470Z,100.00
2024-02-16T04:25:06.137Z,100.00
2024-02-16T04:27:37.022Z,100.00
2024-02-16T04:30:07.160Z,100.00
2024-02-16T04:32:38.136Z,100.00
2024-02-16T04:35:11.731Z,100.00
2024-02-16T04:37:42.741Z,100.00
2024-02-16T04:40:15.842Z,100.00
2024-02-16T04:42:47.426Z,100.00
2024-02-16T04:45:16.797Z,100.00
2024-02-16T04:47:47.874Z,100.00
2024-02-16T04:50:18.851Z,100.00
2024-02-16T04:52:49.696Z,100.00
2024-02-16T04:55:27.493Z,100.00
2024-02-16T04:57:58.769Z,100.00
2024-02-16T05:00:29.971Z,100.00
2024-02-16T05:03:01.034Z,100.00
2024-02-16T05:05:32.300Z,100.00
2024-02-16T05:08:03.938Z,100.00
2024-02-16T05:10:35.187Z,100.00
2024-02-16T05:13:06.318Z,100.00
2024-02-16T05:15:35.769Z,100.00
2024-02-16T05:18:08.743Z,100.00
2024-02-16T05:20:40.961Z,100.00
2024-02-16T05:23:11.711Z,100.00
2024-02-16T05:25:42.638Z,100.00
2024-02-16T05:28:13.516Z,100.00
2024-02-16T05:30:44.766Z,100.00
2024-02-16T05:33:15.861Z,100.00
2024-02-16T05:35:46.941Z,100.00
2024-02-16T06:12:10.916Z,100.00
2024-02-16T06:14:41.986Z,100.00
2024-02-16T06:17:14.678Z,100.00
2024-02-16T06:19:45.929Z,100.00
2024-02-16T06:22:16.945Z,100.00
2024-02-16T06:24:48.057Z,100.00
2024-02-16T06:27:19.031Z,100.00
2024-02-16T06:29:48.343Z,100.00
2024-02-16T06:32:19.233Z,100.00
2024-02-16T06:34:50.107Z,100.00
2024-02-16T06:37:21.092Z,100.00
2024-02-16T06:39:50.516Z,100.00
2024-02-16T06:42:21.583Z,100.00
2024-02-16T06:44:50.887Z,100.00
2024-02-16T06:47:21.741Z,100.00
2024-02-16T06:49:52.838Z,100.00
2024-02-16T06:52:23.835Z,100.00
2024-02-16T06:54:58.409Z,100.00
2024-02-16T06:57:32.678Z,100.00
2024-02-16T07:00:01.940Z,100.00
2024-02-16T07:02:33.083Z,100.00
2024-02-16T07:05:04.349Z,100.00
2024-02-16T07:07:59.428Z,100.00
2024-02-16T07:10:42.452Z,100.00
2024-02-16T07:13:16.184Z,100.00
2024-02-16T07:15:47.120Z,100.00
2024-02-16T07:18:18.294Z,100.00
2024-02-16T07:20:51.395Z,100.00
2024-02-16T07:23:22.450Z,100.00
2024-02-16T07:25:53.617Z,100.00
2024-02-16T07:28:24.389Z,100.00
2024-02-16T07:30:55.608Z,100.00
2024-02-16T07:33:27.097Z,100.00
2024-02-16T07:35:58.088Z,100.00
2024-02-16T07:38:29.295Z,100.00
2024-02-16T07:41:00.781Z,100.00
2024-02-16T07:43:29.989Z,100.00
2024-02-16T07:46:00.778Z,100.00
2024-02-16T07:48:31.978Z,100.00
2024-02-16T07:51:03.055Z,100.00
2024-02-16T07:53:32.548Z,100.00
2024-02-16T07:56:14.537Z,100.00
2024-02-16T07:58:47.631Z,100.00
2024-02-16T08:01:18.783Z,100.00
2024-02-16T08:03:49.678Z,100.00
2024-02-16T08:06:20.744Z,100.00
2024-02-16T08:08:51.618Z,100.00
2024-02-16T08:11:23.353Z,100.00
2024-02-16T08:13:54.314Z,100.00
2024-02-16T08:16:25.731Z,100.00
2024-02-16T08:18:59.783Z,100.00
2024-02-16T08:21:30.769Z,100.00
2024-02-16T08:24:02.618Z,100.00
2024-02-16T08:26:33.503Z,100.00
2024-02-16T08:29:04.248Z,100.00
2024-02-16T08:31:35.275Z,100.00
2024-02-16T08:34:07.289Z,100.00
2024-02-16T08:36:38.590Z,100.00
2024-02-16T08:39:07.784Z,100.00
2024-02-16T08:41:38.693Z,100.00
2024-02-16T08:44:09.984Z,100.00
2024-02-16T08:46:41.012Z,100.00
2024-02-16T08:49:10.325Z,100.00
2024-02-16T08:51:41.269Z,99.43
2024-02-16T08:54:12.304Z,98.71
2024-02-16T08:56:49.387Z,98.61
2024-02-16T08:59:20.436Z,99.11
2024-02-16T09:01:53.789Z,98.38
2024-02-16T09:04:22.981Z,97.88
2024-02-16T09:06:54.022Z,97.30
2024-02-16T09:09:24.939Z,98.38
2024-02-16T09:11:56.656Z,97.46
2024-02-16T09:14:27.530Z,95.89
2024-02-16T09:16:58.408Z,96.72
2024-02-16T09:19:27.729Z,96.62
2024-02-16T09:21:59.181Z,96.74
2024-02-16T09:24:30.322Z,94.21
2024-02-16T09:26:59.766Z,94.55
2024-02-16T09:29:31.545Z,94.43
2024-02-16T09:32:02.611Z,94.97
2024-02-16T09:34:33.961Z,95.25
2024-02-16T09:37:05.327Z,94.53
2024-02-16T09:39:36.313Z,93.99
2024-02-16T09:42:07.618Z,91.65
2024-02-16T09:44:40.359Z,92.12
2024-02-16T09:47:12.498Z,90.52
2024-02-16T09:49:43.717Z,92.00
2024-02-16T09:52:14.969Z,90.29
2024-02-16T09:54:45.920Z,90.29
2024-02-16T09:57:19.561Z,90.65
2024-02-16T09:59:50.808Z,90.74
2024-02-16T10:02:22.038Z,89.90
2024-02-16T10:04:53.197Z,89.67
2024-02-16T10:07:33.656Z,89.71
2024-02-16T10:10:04.813Z,89.33
2024-02-16T10:12:35.584Z,89.00
2024-02-16T10:15:09.716Z,88.03
2024-02-16T10:17:40.754Z,87.78
2024-02-16T10:20:11.549Z,88.10
2024-02-16T10:22:48.363Z,87.22
2024-02-16T10:25:19.957Z,86.71
2024-02-16T10:27:50.014Z,86.33
2024-02-16T10:30:23.087Z,86.32
2024-02-16T10:32:54.568Z,85.61
2024-02-16T10:35:29.402Z,85.98
2024-02-16T10:38:01.932Z,84.80
2024-02-16T10:40:33.899Z,85.24
2024-02-16T10:43:06.872Z,84.96
2024-02-16T10:45:45.175Z,84.64
2024-02-16T10:48:16.933Z,84.68
2024-02-16T10:50:48.158Z,83.78
2024-02-16T10:53:24.494Z,83.35
2024-02-16T10:55:57.980Z,83.80
2024-02-16T10:58:30.438Z,83.41
2024-02-16T11:01:10.929Z,83.76
2024-02-16T11:03:42.461Z,83.38
2024-02-16T11:06:19.322Z,81.95
2024-02-16T11:08:51.885Z,83.63
2024-02-16T11:11:26.932Z,83.84
2024-02-16T11:13:58.581Z,83.30
2024-02-16T11:16:31.693Z,83.13
2024-02-16T11:19:03.231Z,83.15
2024-02-16T11:21:34.200Z,82.45
2024-02-16T11:24:07.699Z,81.92
2024-02-16T11:26:47.295Z,80.60
2024-02-16T11:29:19.832Z,81.29
2024-02-16T11:31:53.854Z,80.72
2024-02-16T11:34:27.926Z,80.68
2024-02-16T11:36:59.493Z,80.68
2024-02-16T11:39:31.189Z,81.32
2024-02-16T11:42:07.006Z,80.49
2024-02-16T11:44:38.792Z,80.47
2024-02-16T11:47:10.302Z,81.36
2024-02-16T11:49:42.477Z,80.80
2024-02-16T11:52:13.583Z,80.58
2024-02-16T11:54:47.880Z,80.76
2024-02-16T11:57:19.071Z,80.67
2024-02-16T11:59:50.182Z,80.48
2024-02-16T12:02:21.278Z,80.32
2024-02-16T12:05:03.454Z,79.11
2024-02-16T12:07:37.741Z,78.65
2024-02-16T12:10:12.117Z,78.71
2024-02-16T12:12:43.010Z,78.38
2024-02-16T12:15:12.830Z,78.89
2024-02-16T12:17:43.705Z,78.34
2024-02-16T12:20:16.549Z,78.06
2024-02-16T12:22:47.701Z,78.41
2024-02-16T12:25:20.260Z,78.37
2024-02-16T12:27:51.208Z,77.24
2024-02-16T12:30:22.294Z,77.87
2024-02-16T12:32:53.482Z,77.82
2024-02-16T12:35:24.590Z,77.05
2024-02-16T12:37:55.582Z,77.14
2024-02-16T12:40:26.590Z,77.26
2024-02-16T12:42:57.562Z,77.24
2024-02-16T12:45:28.943Z,77.45
2024-02-16T12:48:00.243Z,77.78
2024-02-16T12:50:31.709Z,77.25
2024-02-16T12:53:04.687Z,76.84
2024-02-16T12:55:42.359Z,77.05
2024-02-16T12:58:13.277Z,76.84
2024-02-16T13:00:42.676Z,76.30
2024-02-16T13:03:13.633Z,76.07
2024-02-16T13:05:44.868Z,76.76
2024-02-16T13:08:15.691Z,76.44
2024-02-16T13:10:47.032Z,76.43
2024-02-16T13:13:17.908Z,76.25
2024-02-16T13:15:48.955Z,75.78
2024-02-16T13:18:20.091Z,75.48
2024-02-16T13:20:51.016Z,75.05
2024-02-16T13:26:08.243Z,74.39
2024-02-16T13:28:37.495Z,74.95
2024-02-16T13:31:08.859Z,74.92
2024-02-16T13:33:40.356Z,75.12
2024-02-16T13:36:11.404Z,75.53
2024-02-16T13:38:42.532Z,75.01
2024-02-16T14:23:22.644Z,75.58
2024-02-16T14:25:53.625Z,75.55
2024-02-16T14:28:22.766Z,75.15
2024-02-16T14:30:54.013Z,75.42
2024-02-16T14:33:32.665Z,75.63
2024-02-16T14:36:08.077Z,75.53
2024-02-16T14:38:42.397Z,75.63
2024-02-16T14:41:14.131Z,75.67
2024-02-16T14:43:45.041Z,75.60
2024-02-16T14:46:14.183Z,75.87
2024-02-16T14:48:45.181Z,75.91
2024-02-16T14:51:14.601Z,76.05
2024-02-16T14:53:45.490Z,76.15
2024-02-16T14:56:23.273Z,76.15
2024-02-16T14:58:54.232Z,76.07
2024-02-16T15:01:23.871Z,76.47
2024-02-16T15:03:54.797Z,76.38
2024-02-16T15:06:24.518Z,76.39
2024-02-16T15:08:55.490Z,76.39
2024-02-16T15:11:26.540Z,76.48
2024-02-16T15:13:57.365Z,76.63
2024-02-16T15:16:28.260Z,76.75
2024-02-16T15:18:57.558Z,76.68
2024-02-16T15:21:28.909Z,76.48
2024-02-16T15:24:00.023Z,76.51
2024-02-16T15:26:31.539Z,76.55
2024-02-16T15:29:00.688Z,76.58
2024-02-16T15:31:31.840Z,76.46
2024-02-16T15:34:02.880Z,76.40
2024-02-16T15:36:34.229Z,76.50
2024-02-16T15:39:05.194Z,76.41
2024-02-16T15:41:34.501Z,76.35
2024-02-16T15:44:07.063Z,76.07
2024-02-16T15:46:37.929Z,76.05
2024-02-16T15:49:08.996Z,76.04
2024-02-16T15:51:39.854Z,76.13
2024-02-16T15:54:11.541Z,76.05
2024-02-16T15:56:42.554Z,76.18
2024-02-16T15:59:13.557Z,76.11
2024-02-16T16:01:42.955Z,76.04
2024-02-16T16:04:13.921Z,76.19
2024-02-16T16:06:43.702Z,76.21
2024-02-16T16:09:14.634Z,76.10
2024-02-16T16:11:46.262Z,76.14
2024-02-16T16:14:17.184Z,76.33
2024-02-16T16:16:46.481Z,76.32
2024-02-16T16:19:17.265Z,76.42
2024-02-16T16:21:48.198Z,76.39
2024-02-16T16:24:17.569Z,76.51
2024-02-16T16:26:48.679Z,76.34
2024-02-16T16:29:19.419Z,76.48
2024-02-16T16:31:51.255Z,76.54
2024-02-16T16:34:22.238Z,76.63
2024-02-16T16:36:51.574Z,76.38
2024-02-16T16:39:22.547Z,76.61
2024-02-16T16:41:54.594Z,76.85
2024-02-16T16:44:26.289Z,76.71
2024-02-16T16:46:57.164Z,76.72
2024-02-16T16:49:28.088Z,76.89
2024-02-16T16:51:57.289Z,76.86
2024-02-16T16:54:28.413Z,76.81
2024-02-16T16:56:59.346Z,76.81
2024-02-16T16:59:28.651Z,76.75
2024-02-16T17:01:59.605Z,76.84
2024-02-16T17:04:30.563Z,76.83
2024-02-16T17:06:59.864Z,76.86
2024-02-16T17:09:30.815Z,76.71
2024-02-16T17:12:00.206Z,76.65
2024-02-16T17:14:31.496Z,76.89
2024-02-16T17:17:02.378Z,76.78
2024-02-16T17:19:31.839Z,76.84
2024-02-16T17:22:03.926Z,76.92
2024-02-16T17:24:34.941Z,77.04
2024-02-16T17:27:07.016Z,77.09
2024-02-16T17:29:39.485Z,77.07
2024-02-16T17:32:10.798Z,77.32
2024-02-16T17:34:41.633Z,77.34
2024-02-16T17:37:12.558Z,77.59
2024-02-16T17:39:44.289Z,77.52
2024-02-16T17:42:15.564Z,77.56
2024-02-16T17:44:46.551Z,77.43
2024-02-16T17:47:17.889Z,77.49
2024-02-16T17:49:51.010Z,77.47
2024-02-16T17:52:22.194Z,77.68
2024-02-16T17:54:53.036Z,77.79
2024-02-16T17:57:31.354Z,77.90
2024-02-16T18:00:00.863Z,77.83
2024-02-16T18:02:39.896Z,78.31
2024-02-16T18:05:12.369Z,78.18
2024-02-16T18:07:43.267Z,78.32
2024-02-16T18:10:14.137Z,78.43
2024-02-16T18:12:45.453Z,78.45
2024-02-16T18:15:16.471Z,78.65
2024-02-16T18:17:45.719Z,78.64
2024-02-16T18:20:16.659Z,78.76
2024-02-16T18:22:46.050Z,79.01
2024-02-16T18:25:17.458Z,79.04
2024-02-16T18:27:46.817Z,79.15
2024-02-16T18:30:19.377Z,79.20
2024-02-16T18:32:52.502Z,79.17
2024-02-16T18:35:21.900Z,79.25
2024-02-16T18:37:53.111Z,79.30
2024-02-16T18:40:24.026Z,79.35
2024-02-16T18:42:55.875Z,79.41
2024-02-16T18:45:26.877Z,79.32
2024-02-16T18:47:56.406Z,79.42
2024-02-16T18:50:27.300Z,79.32
2024-02-16T18:52:58.193Z,79.24
2024-02-16T18:55:27.407Z,79.22
2024-02-16T18:57:58.553Z,79.25
2024-02-16T19:00:29.536Z,79.13
2024-02-16T19:03:00.888Z,79.05
2024-02-16T19:05:32.575Z,79.00
2024-02-16T19:08:01.956Z,78.84
2024-02-16T19:10:32.873Z,78.80
2024-02-16T19:13:03.847Z,78.55
2024-02-16T19:15:34.839Z,78.34
2024-02-16T19:18:08.062Z,78.33
2024-02-16T19:20:48.093Z,78.26
2024-02-16T19:23:19.150Z,78.23
2024-02-16T19:25:50.068Z,78.14
2024-02-16T19:28:21.367Z,77.95
2024-02-16T19:30:52.528Z,77.78
2024-02-16T19:33:23.593Z,77.44
2024-02-16T19:35:53.019Z,77.66
2024-02-16T19:38:24.135Z,77.46
2024-02-16T19:40:55.768Z,77.22
2024-02-16T19:43:28.008Z,77.21
2024-02-16T19:46:00.183Z,77.00
2024-02-16T19:48:31.397Z,77.03
2024-02-16T19:51:02.537Z,77.02
2024-02-16T19:53:32.070Z,77.01
2024-02-16T19:56:03.011Z,76.96
2024-02-16T19:58:32.350Z,77.03
2024-02-16T20:01:03.367Z,76.93
2024-02-16T20:03:34.596Z,77.07
2024-02-16T20:06:19.314Z,76.98
2024-02-16T20:08:51.304Z,77.08
2024-02-16T20:11:22.408Z,77.06
2024-02-16T20:13:51.661Z,76.87
2024-02-16T20:16:28.621Z,76.80
2024-02-16T20:19:00.012Z,76.94
2024-02-16T20:21:33.873Z,76.96
2024-02-16T20:24:05.580Z,76.98
2024-02-16T20:26:36.781Z,76.75
2024-02-16T20:29:07.731Z,76.78
2024-02-16T20:31:38.638Z,76.89
2024-02-16T20:34:09.758Z,77.09
2024-02-16T20:36:40.873Z,76.83
2024-02-16T20:39:11.849Z,76.84
2024-02-16T20:41:42.917Z,76.87
2024-02-16T20:44:12.154Z,76.79
2024-02-16T20:46:43.159Z,77.00
2024-02-16T20:49:12.551Z,76.98
2024-02-16T20:51:43.606Z,76.85
2024-02-16T20:54:13.006Z,77.08
2024-02-16T20:56:44.931Z,77.20
2024-02-16T20:59:16.175Z,77.30
2024-02-16T21:01:47.053Z,77.56
2024-02-16T21:04:22.482Z,77.66
2024-02-16T21:06:53.627Z,77.82
2024-02-16T21:09:24.631Z,77.80
2024-02-16T21:11:55.312Z,77.79
2024-02-16T21:14:26.618Z,78.13
2024-02-16T21:16:57.860Z,78.18
2024-02-16T21:19:28.720Z,78.13
2024-02-16T21:21:59.658Z,78.14
2024-02-16T21:24:29.852Z,78.04
2024-02-16T21:27:00.799Z,78.24
2024-02-16T21:29:32.220Z,78.18
2024-02-16T21:32:26.084Z,78.42
2024-02-16T21:34:54.703Z,78.50
2024-02-16T21:37:25.637Z,78.55
2024-02-16T21:39:56.592Z,78.18
2024-02-16T21:42:25.795Z,78.21
2024-02-16T21:44:56.946Z,78.30
2024-02-16T21:47:26.340Z,78.43
2024-02-16T21:49:57.561Z,78.27
2024-02-16T21:52:29.094Z,78.21
2024-02-16T21:55:00.396Z,78.37
2024-02-16T21:57:45.339Z,78.37
2024-02-16T22:00:20.465Z,78.23
2024-02-16T22:02:53.632Z,78.12
2024-02-16T22:05:24.709Z,78.04
2024-02-16T22:07:55.664Z,78.21
2024-02-16T22:10:26.638Z,78.04
2024-02-16T22:12:57.668Z,78.09
2024-02-16T22:15:28.633Z,78.17
2024-02-16T22:17:59.477Z,78.05
2024-02-16T22:20:28.837Z,78.40
2024-02-16T22:22:59.818Z,78.36
2024-02-16T22:25:30.848Z,78.49
2024-02-16T22:28:00.142Z,78.51
2024-02-16T22:30:31.278Z,78.22
2024-02-16T22:33:00.748Z,78.30
2024-02-16T22:35:31.611Z,78.51
2024-02-16T22:38:02.367Z,78.46
2024-02-16T22:40:33.368Z,78.54
2024-02-16T22:43:02.656Z,78.87
2024-02-16T22:45:33.692Z,78.74
2024-02-16T22:48:03.177Z,78.84
2024-02-16T22:50:34.398Z,79.01
2024-02-16T22:53:06.075Z,79.08
2024-02-16T22:55:42.245Z,79.19
2024-02-16T22:58:41.164Z,79.14
2024-02-16T23:03:01.376Z,79.25
2024-02-16T23:05:32.738Z,79.36
2024-02-16T23:08:04.240Z,79.34
2024-02-16T23:10:35.827Z,79.28
2024-02-16T23:13:07.403Z,79.57
2024-02-16T23:15:38.777Z,79.95
2024-02-16T23:18:09.996Z,80.10
2024-02-16T23:20:40.935Z,80.27
2024-02-16T23:23:12.505Z,80.65
2024-02-16T23:25:44.742Z,80.82
2024-02-16T23:28:16.589Z,81.07
2024-02-16T23:30:48.041Z,81.24
2024-02-16T23:33:17.427Z,81.48
2024-02-16T23:35:49.513Z,81.69
2024-02-16T23:38:20.316Z,82.08
2024-02-16T23:40:51.600Z,82.10
2024-02-16T23:43:22.666Z,82.34
2024-02-16T23:45:52.198Z,82.53
2024-02-16T23:48:23.709Z,82.79
2024-02-16T23:50:54.582Z,82.85
2024-02-16T23:53:25.384Z,83.08
2024-02-16T23:55:56.444Z,83.16
2024-02-16T23:58:25.835Z,83.43
